createdAt,value
2022-12-12T00:03:53.730Z,99191.00
2022-12-12T00:07:34.505Z,99190.78
2022-12-12T00:14:16.804Z,99178.14
2022-12-12T00:17:44.093Z,99177.03
2022-12-12T00:21:18.928Z,99169.48
2022-12-12T00:28:08.630Z,99161.80
2022-12-12T00:31:31.255Z,99159.56
2022-12-12T00:34:50.472Z,99165.23
2022-12-12T00:38:14.020Z,99169.19
2022-12-12T00:41:43.474Z,99175.16
2022-12-12T00:45:16.653Z,99175.91
2022-12-12T00:48:58.373Z,99170.95
2022-12-12T00:52:21.312Z,99169.48
2022-12-12T00:55:47.206Z,99166.75
2022-12-12T00:59:43.795Z,99167.77
2022-12-12T01:06:46.449Z,99180.00
2022-12-12T01:10:18.751Z,99187.60
2022-12-12T01:13:37.222Z,99164.73
2022-12-12T01:17:17.736Z,99170.19
2022-12-12T01:20:52.962Z,99152.09
2022-12-12T01:24:27.755Z,99164.07
2022-12-12T01:28:08.662Z,99174.69
2022-12-12T01:34:56.592Z,99178.70
2022-12-12T01:38:32.223Z,99180.00
2022-12-12T01:41:56.071Z,99170.98
2022-12-12T01:46:08.408Z,99170.13
2022-12-12T01:49:51.432Z,99172.41
2022-12-12T01:56:53.067Z,99174.69
2022-12-12T02:00:50.642Z,99162.28
2022-12-12T02:04:15.979Z,99166.69
2022-12-12T02:07:48.973Z,99166.38
2022-12-12T02:11:27.671Z,99177.30
2022-12-12T02:15:01.803Z,99191.16
2022-12-12T02:18:51.743Z,99192.01
2022-12-12T02:22:15.841Z,99172.75
2022-12-12T02:26:17.792Z,99175.02
2022-12-12T02:34:31.623Z,99157.05
2022-12-12T02:38:50.324Z,99160.48
2022-12-12T02:46:13.407Z,99159.26
2022-12-12T02:49:58.556Z,99180.13
2022-12-12T02:53:24.791Z,99188.52
2022-12-12T02:57:15.358Z,99173.62
2022-12-12T03:00:38.195Z,99177.54
2022-12-12T03:04:32.305Z,99164.77
2022-12-12T03:08:25.208Z,99166.99
2022-12-12T03:15:40.985Z,99166.63
2022-12-12T03:19:37.413Z,99155.65
2022-12-12T03:23:14.761Z,99160.31
2022-12-12T03:27:04.780Z,99152.05
2022-12-12T03:30:39.581Z,99164.33
2022-12-12T03:34:16.046Z,99170.47
2022-12-12T03:37:52.847Z,99179.19
2022-12-12T03:41:27.284Z,99180.17
2022-12-12T03:45:06.206Z,99182.86
2022-12-12T03:48:59.638Z,99187.58
2022-12-12T03:52:39.478Z,99196.35
2022-12-12T03:56:28.779Z,99197.14
2022-12-12T04:03:42.731Z,99209.38
2022-12-12T04:07:27.352Z,99211.95
2022-12-12T04:11:04.955Z,99220.09
2022-12-12T04:14:56.375Z,99212.89
2022-12-12T04:18:45.480Z,99207.37
2022-12-12T04:22:27.430Z,99207.33
2022-12-12T04:26:28.950Z,99203.70
2022-12-12T04:29:49.933Z,99199.06
2022-12-12T04:33:32.938Z,99197.20
2022-12-12T04:37:00.873Z,99179.27
2022-12-12T04:40:25.326Z,99178.22
2022-12-12T04:43:42.725Z,99170.50
2022-12-12T04:46:56.704Z,99170.64
2022-12-12T04:50:07.581Z,99170.95
2022-12-12T04:53:21.289Z,99173.88
2022-12-12T04:56:40.476Z,99176.10
2022-12-12T04:59:51.645Z,99172.32
2022-12-12T05:03:28.042Z,99165.81
2022-12-12T05:06:43.016Z,99168.23
2022-12-12T05:09:57.442Z,99175.44
2022-12-12T05:13:17.980Z,99181.60
2022-12-12T05:16:45.678Z,99174.27
2022-12-12T05:19:59.087Z,99177.86
2022-12-12T05:23:20.669Z,99180.90
2022-12-12T05:26:48.995Z,99165.89
2022-12-12T05:30:06.811Z,99161.41
2022-12-12T05:33:18.743Z,99160.04
2022-12-12T05:37:03.685Z,99158.56
2022-12-12T05:40:26.256Z,99155.83
2022-12-12T05:43:41.537Z,99162.31
2022-12-12T05:46:54.961Z,99156.85
2022-12-12T05:50:10.667Z,99141.02
2022-12-12T05:53:28.301Z,99137.56
2022-12-12T05:56:56.893Z,99146.71
2022-12-12T06:00:21.259Z,99139.50
2022-12-12T06:03:37.816Z,99151.27
2022-12-12T06:07:00.235Z,99154.00
2022-12-12T06:17:58.827Z,99150.56
2022-12-12T06:21:43.676Z,99154.77
2022-12-12T06:29:35.622Z,99141.65
2022-12-12T06:36:38.636Z,99151.09
2022-12-12T06:44:17.758Z,99148.88
2022-12-12T06:48:00.381Z,99149.72
2022-12-12T06:51:55.732Z,99153.27
2022-12-12T07:09:06.582Z,99146.00
2022-12-12T07:16:31.287Z,99136.65
2022-12-12T07:19:50.648Z,99146.00
2022-12-12T07:23:26.933Z,99144.95
2022-12-12T07:31:01.492Z,99153.09
2022-12-12T07:34:32.081Z,99147.86
2022-12-12T07:37:47.937Z,99145.78
2022-12-12T07:44:39.331Z,99153.58
2022-12-12T07:48:15.199Z,99149.63
2022-12-12T07:52:00.962Z,99146.35
2022-12-12T07:55:20.864Z,99151.30
2022-12-12T07:59:03.621Z,99148.06
2022-12-12T08:02:28.610Z,99141.34
2022-12-12T08:05:43.097Z,99154.59
2022-12-12T08:08:55.819Z,99161.88
2022-12-12T08:12:26.145Z,99154.86
2022-12-12T08:15:47.858Z,99144.44
2022-12-12T08:19:14.647Z,99146.55
2022-12-12T08:22:51.658Z,99141.09
2022-12-12T08:26:11.621Z,99144.73
2022-12-12T08:29:32.597Z,99137.54
2022-12-12T08:33:04.893Z,99130.77
2022-12-12T08:37:28.604Z,99138.08
2022-12-12T08:45:20.558Z,99128.45
2022-12-12T08:48:50.443Z,99119.81
2022-12-12T08:53:00.576Z,99117.39
2022-12-12T08:56:27.949Z,99118.56
2022-12-12T08:59:58.983Z,99126.75
2022-12-12T09:03:35.676Z,99125.93
2022-12-12T09:07:08.657Z,99117.55
2022-12-12T09:10:34.254Z,99121.44
2022-12-12T09:13:57.920Z,99111.89
2022-12-12T09:24:25.233Z,99120.08
2022-12-12T09:28:11.302Z,99125.58
2022-12-12T09:35:18.141Z,99115.33
2022-12-12T09:38:38.271Z,99126.55
2022-12-12T09:45:41.551Z,99122.20
2022-12-12T09:49:09.931Z,99137.11
2022-12-12T09:52:35.622Z,99146.12
2022-12-12T09:56:13.356Z,99151.27
2022-12-12T10:04:12.611Z,99163.04
2022-12-12T10:08:01.315Z,99157.44
2022-12-12T10:11:20.140Z,99158.09
2022-12-12T10:14:39.195Z,99171.85
2022-12-12T10:17:59.266Z,99177.27
2022-12-12T10:21:12.824Z,99177.44
2022-12-12T10:24:56.547Z,99174.27
2022-12-12T10:52:58.213Z,99198.55
2022-12-12T10:56:38.163Z,99200.11
2022-12-12T11:00:07.077Z,99218.23
2022-12-12T11:03:54.844Z,99220.23
2022-12-12T11:07:31.987Z,99225.22
2022-12-12T11:11:04.564Z,99229.95
2022-12-12T11:14:25.771Z,99239.17
2022-12-12T11:17:58.031Z,99241.47
2022-12-12T11:21:33.190Z,99245.41
2022-12-12T11:24:55.420Z,99247.20
2022-12-12T11:28:18.404Z,99243.42
2022-12-12T11:31:55.486Z,99244.78
2022-12-12T11:35:24.600Z,99238.25
2022-12-12T11:39:47.029Z,99243.86
2022-12-12T11:42:53.324Z,99242.43
2022-12-12T11:46:00.745Z,99241.73
2022-12-12T11:57:36.968Z,99267.27
2022-12-12T12:05:20.662Z,99281.31
2022-12-12T12:09:29.813Z,99294.03
2022-12-12T12:13:17.274Z,99311.96
2022-12-12T12:21:11.079Z,99326.03
2022-12-12T12:25:17.847Z,99344.27
2022-12-12T12:29:20.477Z,99344.25
2022-12-12T12:37:23.876Z,99368.68
2022-12-12T12:41:24.152Z,99373.81
2022-12-12T12:44:52.703Z,99390.67
2022-12-12T12:48:17.515Z,99393.77
2022-12-12T12:51:35.746Z,99396.50
2022-12-12T12:55:22.451Z,99399.53
2022-12-12T12:59:04.111Z,99395.47
2022-12-12T13:03:03.841Z,99394.95
2022-12-12T13:06:41.127Z,99400.05
2022-12-12T13:10:23.725Z,99406.51
2022-12-12T13:13:52.765Z,99416.20
2022-12-12T13:17:16.680Z,99413.81
2022-12-12T13:20:46.404Z,99432.51
2022-12-12T13:24:25.108Z,99439.28
2022-12-12T13:28:04.875Z,99440.44
2022-12-12T13:32:04.231Z,99448.05
2022-12-12T13:35:23.783Z,99448.05
2022-12-12T13:38:43.869Z,99464.98
2022-12-12T13:42:25.250Z,99469.00
2022-12-12T13:45:50.389Z,99466.09
2022-12-12T13:49:03.414Z,99473.03
2022-12-12T13:52:55.542Z,99468.77
2022-12-12T13:56:57.920Z,99476.70
2022-12-12T14:00:27.712Z,99487.19
2022-12-12T14:03:46.409Z,99487.14
2022-12-12T14:07:05.035Z,99487.43
2022-12-12T14:10:50.368Z,99485.05
2022-12-12T14:14:09.264Z,99489.81
2022-12-12T14:17:27.249Z,99508.09
2022-12-12T14:20:56.232Z,99508.95
2022-12-12T14:24:17.799Z,99511.77
2022-12-12T14:27:41.636Z,99521.70
2022-12-12T14:35:45.629Z,99519.58
2022-12-12T14:39:15.577Z,99522.11
2022-12-12T14:43:20.523Z,99531.05
2022-12-12T14:46:18.381Z,99531.27
2022-12-12T14:49:51.393Z,99538.86
2022-12-12T15:00:55.417Z,99560.09
2022-12-12T15:04:38.808Z,99561.11
2022-12-12T15:08:21.152Z,99569.08
2022-12-12T15:15:48.777Z,99567.09
2022-12-12T15:19:08.453Z,99571.84
2022-12-12T15:22:24.208Z,99570.81
2022-12-12T15:25:36.866Z,99581.66
2022-12-12T15:28:50.236Z,99580.23
2022-12-12T15:32:03.391Z,99590.13
2022-12-12T15:35:21.126Z,99588.66
2022-12-12T15:38:30.943Z,99587.28
2022-12-12T15:41:42.353Z,99586.42
2022-12-12T15:44:52.057Z,99591.19
2022-12-12T15:48:06.205Z,99591.55
2022-12-12T15:51:25.248Z,99589.16
2022-12-12T15:54:35.620Z,99599.98
2022-12-12T15:58:20.764Z,99603.06
2022-12-12T16:01:38.033Z,99614.39
2022-12-12T16:04:55.174Z,99606.52
2022-12-12T16:08:12.806Z,99603.94
2022-12-12T16:11:58.130Z,99603.72
2022-12-12T16:15:45.790Z,99595.08
2022-12-12T16:19:20.064Z,99599.08
2022-12-12T16:23:06.845Z,99596.37
2022-12-12T16:26:16.654Z,99606.38
2022-12-12T16:29:38.030Z,99610.28
2022-12-12T16:32:49.211Z,99597.88
2022-12-12T16:36:09.472Z,99599.76
2022-12-12T16:39:24.698Z,99607.48
2022-12-12T16:42:36.573Z,99623.35
2022-12-12T16:45:50.599Z,99623.88
2022-12-12T16:48:59.513Z,99622.12
2022-12-12T16:52:11.954Z,99640.20
2022-12-12T16:55:38.695Z,99631.62
2022-12-12T16:58:54.524Z,99633.59
2022-12-12T17:02:06.808Z,99646.86
2022-12-12T17:05:22.697Z,99644.48
2022-12-12T17:08:30.198Z,99652.52
2022-12-12T17:11:47.009Z,99666.30
2022-12-12T17:14:54.729Z,99665.50
2022-12-12T17:18:05.947Z,99659.72
2022-12-12T17:21:18.340Z,99658.21
2022-12-12T17:24:28.341Z,99657.53
2022-12-12T17:27:37.389Z,99654.52
2022-12-12T17:30:49.497Z,99660.73
2022-12-12T17:34:00.952Z,99654.42
2022-12-12T17:37:16.161Z,99655.77
2022-12-12T17:40:33.299Z,99649.63
2022-12-12T17:43:41.152Z,99653.65
2022-12-12T17:46:49.808Z,99650.42
2022-12-12T17:50:02.852Z,99652.45
2022-12-12T17:53:17.914Z,99657.79
2022-12-12T17:56:33.199Z,99662.16
2022-12-12T17:59:42.216Z,99670.77
2022-12-12T18:02:55.219Z,99672.27
2022-12-12T18:06:12.382Z,99678.63
2022-12-12T18:09:22.005Z,99679.45
2022-12-12T18:12:33.709Z,99682.72
2022-12-12T18:16:01.733Z,99689.94
2022-12-12T18:19:12.095Z,99699.52
2022-12-12T18:22:25.587Z,99706.50
2022-12-12T18:25:41.850Z,99704.68
2022-12-12T18:28:55.172Z,99709.48
2022-12-12T18:32:09.057Z,99704.92
2022-12-12T18:35:26.933Z,99716.66
2022-12-12T18:38:45.727Z,99727.00
2022-12-12T18:41:57.454Z,99729.36
2022-12-12T18:45:01.694Z,99731.43
2022-12-12T18:48:14.404Z,99742.73
2022-12-12T18:51:30.191Z,99738.45
2022-12-12T18:54:43.204Z,99750.13
2022-12-12T18:57:58.403Z,99755.91
2022-12-12T19:01:10.684Z,99752.62
2022-12-12T19:04:23.727Z,99751.17
2022-12-12T19:08:00.963Z,99760.34
2022-12-12T19:11:15.900Z,99753.44
2022-12-12T19:14:45.793Z,99759.28
2022-12-12T19:17:51.886Z,99755.09
2022-12-12T19:21:07.756Z,99757.31
2022-12-12T19:24:23.329Z,99770.05
2022-12-12T19:27:35.807Z,99775.31
2022-12-12T19:30:50.448Z,99787.62
2022-12-12T19:34:04.489Z,99790.32
2022-12-12T19:37:15.757Z,99789.69
2022-12-12T19:40:24.698Z,99796.07
2022-12-12T19:43:38.659Z,99791.23
2022-12-12T19:46:56.099Z,99798.19
2022-12-12T19:50:07.015Z,99797.41
2022-12-12T19:53:21.606Z,99811.48
2022-12-12T19:56:44.258Z,99806.84
2022-12-12T19:59:59.742Z,99798.16
2022-12-12T20:03:21.475Z,99803.16
2022-12-12T20:06:48.511Z,99819.26
2022-12-12T20:10:31.252Z,99819.54
2022-12-12T20:13:48.290Z,99830.20
2022-12-12T20:16:55.779Z,99842.50
2022-12-12T20:20:05.083Z,99844.85
2022-12-12T20:23:23.439Z,99845.68
2022-12-12T20:26:41.882Z,99854.79
2022-12-12T20:29:59.602Z,99862.41
2022-12-12T20:33:15.206Z,99860.39
2022-12-12T20:36:40.440Z,99861.95
2022-12-12T20:39:57.562Z,99863.06
2022-12-12T20:43:15.883Z,99869.33
2022-12-12T20:46:43.770Z,99876.43
2022-12-12T20:50:03.215Z,99884.80
2022-12-12T20:53:15.222Z,99903.95
2022-12-12T20:56:33.518Z,99898.03
2022-12-12T20:59:52.007Z,99899.17
2022-12-12T21:03:01.147Z,99901.00
2022-12-12T21:06:10.020Z,99909.90
2022-12-12T21:09:26.724Z,99909.92
2022-12-12T21:12:35.566Z,99914.98
2022-12-12T21:15:51.071Z,99929.97
2022-12-12T21:19:06.421Z,99923.70
2022-12-12T21:22:17.518Z,99932.87
2022-12-12T21:25:29.967Z,99934.95
2022-12-12T21:28:44.139Z,99935.92
2022-12-12T21:31:58.127Z,99946.38
2022-12-12T21:35:11.067Z,99932.80
2022-12-12T21:38:19.370Z,99937.55
2022-12-12T21:41:33.323Z,99943.20
2022-12-12T21:44:49.622Z,99939.36
2022-12-12T21:47:59.026Z,99935.23
2022-12-12T21:51:11.674Z,99940.52
2022-12-12T21:54:34.874Z,99944.36
2022-12-12T21:57:50.815Z,99940.20
2022-12-12T22:01:08.155Z,99951.27
2022-12-12T22:04:16.480Z,99961.98
2022-12-12T22:07:17.587Z,99966.05
2022-12-12T22:10:37.922Z,99970.09
2022-12-12T22:13:46.951Z,99971.84
2022-12-12T22:16:56.903Z,99965.84
2022-12-12T22:20:06.554Z,99956.05
2022-12-12T22:23:17.024Z,99972.24
2022-12-12T22:26:36.700Z,99975.20
2022-12-12T22:29:52.593Z,99972.04
2022-12-12T22:33:07.152Z,99964.83
2022-12-12T22:36:26.103Z,99967.17
2022-12-12T22:39:44.230Z,99976.75
2022-12-12T22:43:05.059Z,99976.97
2022-12-12T22:46:22.387Z,99987.88
2022-12-12T22:49:34.778Z,99978.87
2022-12-12T22:52:45.395Z,99976.17
2022-12-12T22:55:57.002Z,99978.52
2022-12-12T22:59:11.083Z,99981.13
2022-12-12T23:02:28.964Z,99979.80
2022-12-12T23:05:41.416Z,99988.75
2022-12-12T23:08:49.860Z,99986.14
2022-12-12T23:12:08.113Z,99988.70
2022-12-12T23:15:20.252Z,99991.39
2022-12-12T23:18:36.509Z,99989.66
2022-12-12T23:21:51.827Z,99995.33
2022-12-12T23:25:05.883Z,99995.97
2022-12-12T23:28:13.760Z,99998.02
2022-12-12T23:31:30.891Z,99999.90
2022-12-12T23:34:43.716Z,100003.86
2022-12-12T23:37:55.693Z,100007.03
2022-12-12T23:41:06.294Z,100010.09
2022-12-12T23:44:18.748Z,100015.09
2022-12-12T23:47:34.501Z,100022.34
2022-12-12T23:50:49.981Z,100029.70
2022-12-12T23:54:02.372Z,100040.28
2022-12-12T23:57:19.658Z,100042.84
